createdAt,value
2022-08-14T00:00:00.000Z,19.22
2022-08-14T00:15:00.000Z,19.25
2022-08-14T00:30:00.000Z,18.9
2022-08-14T00:45:00.000Z,18.55
2022-08-14T01:00:00.000Z,18.36
2022-08-14T01:15:00.000Z,18.28
2022-08-14T01:30:00.000Z,18.26
2022-08-14T01:45:00.000Z,18.11
2022-08-14T02:00:00.000Z,17.97
2022-08-14T02:15:00.000Z,17.91
2022-08-14T02:30:00.000Z,17.89
2022-08-14T02:45:00.000Z,17.74
2022-08-14T03:00:00.000Z,17.65
2022-08-14T03:15:00.000Z,17.47
2022-08-14T03:30:00.000Z,17.3
2022-08-14T03:45:00.000Z,17.24
2022-08-14T04:00:00.000Z,17.26
2022-08-14T04:15:00.000Z,17.24
2022-08-14T04:30:00.000Z,17.26
2022-08-14T04:45:00.000Z,17.51
2022-08-14T05:00:00.000Z,17.84
2022-08-14T05:15:00.000Z,18.26
2022-08-14T05:30:00.000Z,18.7
2022-08-14T05:45:00.000Z,19.16
2022-08-14T06:00:00.000Z,19.58
2022-08-14T06:15:00.000Z,20.31
2022-08-14T06:30:00.000Z,21.28
2022-08-14T06:45:00.000Z,22.2
2022-08-14T07:00:00.000Z,25.24
2022-08-14T07:15:00.000Z,28.53
2022-08-14T07:30:00.000Z,30.31
2022-08-14T07:45:00.000Z,30.93
2022-08-14T08:00:00.000Z,31.89
2022-08-14T08:15:00.000Z,32.16
2022-08-14T08:30:00.000Z,32.8
2022-08-14T08:45:00.000Z,32.67
2022-08-14T09:00:00.000Z,33.03
2022-08-14T09:15:00.000Z,33.64
2022-08-14T09:30:00.000Z,34.18
2022-08-14T09:45:00.000Z,33.72
2022-08-14T10:00:00.000Z,33.8
2022-08-14T10:15:00.000Z,33.59
2022-08-14T10:30:00.000Z,33.03
2022-08-14T10:45:00.000Z,32.92
2022-08-14T11:00:00.000Z,33.02
2022-08-14T11:15:00.000Z,32.48
2022-08-14T11:30:00.000Z,32.04
2022-08-14T11:45:00.000Z,31.71
2022-08-14T12:00:00.000Z,31.68
2022-08-14T12:15:00.000Z,30.64
2022-08-14T12:30:00.000Z,30.85
2022-08-14T12:45:00.000Z,30.66
2022-08-14T13:00:00.000Z,30.77
2022-08-14T13:15:00.000Z,30.75
2022-08-14T13:30:00.000Z,30.44
2022-08-14T13:45:00.000Z,30.47
2022-08-14T14:00:00.000Z,30.31
2022-08-14T14:15:00.000Z,30.09
2022-08-14T14:30:00.000Z,30.07
2022-08-14T14:45:00.000Z,29.99
2022-08-14T15:00:00.000Z,29.93
2022-08-14T15:15:00.000Z,29.83
2022-08-14T15:30:00.000Z,29.64
2022-08-14T15:45:00.000Z,29.4
2022-08-14T16:00:00.000Z,29.25
2022-08-14T16:15:00.000Z,28.97
2022-08-14T16:30:00.000Z,28.77
2022-08-14T16:45:00.000Z,28.47
2022-08-14T17:00:00.000Z,28.12
2022-08-14T17:15:00.000Z,27.76
2022-08-14T17:30:00.000Z,27.41
2022-08-14T17:45:00.000Z,27.03
2022-08-14T18:00:00.000Z,26.56
2022-08-14T18:15:00.000Z,25.97
2022-08-14T18:30:00.000Z,25.39
2022-08-14T18:45:00.000Z,24.89
2022-08-14T19:00:00.000Z,24.5
2022-08-14T19:15:00.000Z,24.16
2022-08-14T19:30:00.000Z,23.89
2022-08-14T19:45:00.000Z,23.74
2022-08-14T20:00:00.000Z,23.45
2022-08-14T20:15:00.000Z,23.17
2022-08-14T20:30:00.000Z,22.87
2022-08-14T20:45:00.000Z,22.44
2022-08-14T21:00:00.000Z,22.14
2022-08-14T21:15:00.000Z,22.01
2022-08-14T21:30:00.000Z,21.57
2022-08-14T21:45:00.000Z,21.31
2022-08-14T22:00:00.000Z,21.22
2022-08-14T22:15:00.000Z,21.01
2022-08-14T22:30:00.000Z,20.63
2022-08-14T22:45:00.000Z,20.52
2022-08-14T23:00:00.000Z,20.22
2022-08-14T23:15:00.000Z,20.51
2022-08-14T23:30:00.000Z,20.69
2022-08-14T23:45:00.000Z,20.72
